Time;durP1;ratioP1;P1;durP2;ratioP2;P2;SDS_P1;SDS_P2;PMS_P1;PMS_P2;Temp;Humidity;BMP_temperature;BMP_pressure;BME280_temperature;BME280_humidity;BME280_pressure;Samples;Min_cycle;Max_cycle;Signal;HPM_P1;HPM_P2
2022/10/09 00:01:00;;;;;;;;;;;9.10;99.90;;;;;;5077604;28;19912;-64
2022/10/09 00:03:26;;;;;;;;;;;9.00;99.90;;;;;;5078274;28;19916;-67
2022/10/09 00:05:52;;;;;;;;;;;9.00;99.90;;;;;;5078254;28;19912;-64
2022/10/09 00:08:17;;;;;;;;;;;9.10;99.90;;;;;;5078254;28;20174;-64
2022/10/09 00:10:43;;;;;;;;;;;9.10;99.90;;;;;;5077957;28;19955;-65
2022/10/09 00:13:12;;;;;;;;;;;9.10;99.90;;;;;;5078171;28;19973;-64
2022/10/09 00:15:38;;;;;;;;;;;9.10;99.90;;;;;;5077952;28;19916;-64
2022/10/09 00:18:04;;;;;;;;;;;9.00;99.90;;;;;;5077998;28;19912;-64
2022/10/09 00:20:34;;;;;;;;;;;9.00;99.90;;;;;;5077926;28;19915;-64
2022/10/09 00:22:59;;;;;;;;;;;9.00;99.90;;;;;;5077866;28;19912;-63
2022/10/09 00:25:25;;;;;;;;;;;9.00;99.90;;;;;;5077864;28;19908;-64
2022/10/09 00:27:50;;;;;;;;;;;8.90;99.90;;;;;;5077249;28;19912;-64
2022/10/09 00:30:16;;;;;;;;;;;8.80;99.90;;;;;;5077011;28;19916;-64
2022/10/09 00:32:42;;;;;;;;;;;8.80;99.90;;;;;;5077796;28;19974;-64
2022/10/09 00:35:07;;;;;;;;;;;8.80;99.90;;;;;;5077742;28;20272;-65
2022/10/09 00:37:33;;;;;;;;;;;8.80;99.90;;;;;;5078243;28;20126;-64
2022/10/09 00:39:59;;;;;;;;;;;8.70;99.90;;;;;;5077633;28;20003;-64
2022/10/09 00:42:25;;;;;;;;;;;8.70;99.90;;;;;;5078182;28;19959;-64
2022/10/09 00:44:59;;;;;;;;;;;8.80;99.90;;;;;;5077749;28;19970;-65
2022/10/09 00:47:30;;;;;;;;;;;8.60;99.90;;;;;;5078028;28;20003;-65
2022/10/09 00:49:58;;;;;;;;;;;8.60;99.90;;;;;;5077461;28;19965;-64
2022/10/09 00:52:24;;;;;;;;;;;8.60;99.90;;;;;;5078209;28;19965;-64
2022/10/09 00:54:51;;;;;;;;;;;8.60;99.90;;;;;;5077479;28;20272;-64
2022/10/09 00:57:17;;;;;;;;;;;8.60;99.90;;;;;;5077533;28;19962;-64
2022/10/09 00:59:42;;;;;;;;;;;8.50;99.90;;;;;;5077448;28;20295;-64
2022/10/09 01:02:08;;;;;;;;;;;8.50;99.90;;;;;;5077622;28;19908;-64
2022/10/09 01:04:34;;;;;;;;;;;8.50;99.90;;;;;;5077748;28;19912;-63
2022/10/09 01:07:25;;;;;;;;;;;8.50;99.90;;;;;;5077302;28;19912;-64
2022/10/09 01:09:53;;;;;;;;;;;8.50;99.90;;;;;;5077354;28;19909;-64
2022/10/09 01:12:36;;;;;;;;;;;8.50;99.90;;;;;;5077206;28;19991;-65
2022/10/09 01:15:15;;;;;;;;;;;8.50;99.90;;;;;;5076585;28;19908;-62
2022/10/09 01:17:41;;;;;;;;;;;8.50;99.90;;;;;;5077263;28;19915;-64
2022/10/09 01:20:09;;;;;;;;;;;8.40;99.90;;;;;;5077208;28;19908;-63
2022/10/09 01:22:49;;;;;;;;;;;8.40;99.90;;;;;;5077045;28;20067;-64
2022/10/09 01:25:44;;;;;;;;;;;8.30;99.90;;;;;;5077137;28;19916;-64
2022/10/09 01:28:10;;;;;;;;;;;8.40;99.90;;;;;;5068090;28;19912;-63
2022/10/09 01:30:36;;;;;;;;;;;8.40;99.90;;;;;;5076385;28;20231;-64
2022/10/09 01:33:02;;;;;;;;;;;8.30;99.90;;;;;;5077671;28;19923;-63
2022/10/09 01:35:28;;;;;;;;;;;8.30;99.90;;;;;;5076999;28;20279;-64
2022/10/09 01:37:54;;;;;;;;;;;8.30;99.90;;;;;;5078135;28;19920;-64
2022/10/09 01:40:21;;;;;;;;;;;8.30;99.90;;;;;;5080287;28;20235;-64
2022/10/09 01:42:46;;;;;;;;;;;8.20;99.90;;;;;;5080922;28;19920;-64
2022/10/09 01:45:13;;;;;;;;;;;8.30;99.90;;;;;;5080928;28;19995;-64
2022/10/09 01:47:39;;;;;;;;;;;8.20;99.90;;;;;;5081096;28;19912;-63
2022/10/09 01:50:11;;;;;;;;;;;8.20;99.90;;;;;;5080954;28;20283;-64
2022/10/09 01:52:41;;;;;;;;;;;8.20;99.90;;;;;;5080189;28;19920;-63
2022/10/09 01:55:26;;;;;;;;;;;8.20;99.90;;;;;;5080186;28;19912;-63
2022/10/09 01:57:56;;;;;;;;;;;8.20;99.90;;;;;;5080656;28;19956;-63
2022/10/09 02:00:22;;;;;;;;;;;8.20;99.90;;;;;;5080029;28;19943;-64
2022/10/09 02:02:49;;;;;;;;;;;8.10;99.90;;;;;;5080571;28;19962;-64
2022/10/09 02:05:23;;;;;;;;;;;8.10;99.90;;;;;;5079770;28;20283;-64
2022/10/09 02:07:49;;;;;;;;;;;8.00;99.90;;;;;;5081204;28;19908;-64
2022/10/09 02:10:16;;;;;;;;;;;8.00;99.90;;;;;;5080565;28;19974;-64
2022/10/09 02:12:44;;;;;;;;;;;8.00;99.90;;;;;;5080338;28;19916;-64
2022/10/09 02:15:10;;;;;;;;;;;8.00;99.90;;;;;;5080418;28;20187;-64
2022/10/09 02:17:37;;;;;;;;;;;7.90;99.90;;;;;;5079578;28;20003;-64
2022/10/09 02:20:11;;;;;;;;;;;7.90;99.90;;;;;;5080422;28;19920;-63
2022/10/09 02:22:36;;;;;;;;;;;7.90;99.90;;;;;;5080224;28;19916;-64
2022/10/09 02:25:05;;;;;;;;;;;8.00;99.90;;;;;;5079433;28;19916;-64
2022/10/09 02:27:31;;;;;;;;;;;8.10;99.90;;;;;;5080704;28;19995;-64
2022/10/09 02:29:57;;;;;;;;;;;8.00;99.90;;;;;;5080028;28;19999;-64
2022/10/09 02:32:23;;;;;;;;;;;7.90;99.90;;;;;;5080058;28;19918;-64
2022/10/09 02:34:49;;;;;;;;;;;7.80;99.90;;;;;;5062851;28;19919;-64
2022/10/09 02:37:15;;;;;;;;;;;7.80;99.90;;;;;;5079983;28;19908;-64
2022/10/09 02:39:42;;;;;;;;;;;7.80;99.90;;;;;;5079907;28;19924;-63
2022/10/09 02:42:08;;;;;;;;;;;7.80;99.90;;;;;;5079782;28;20007;-63
2022/10/09 02:44:34;;;;;;;;;;;7.80;99.90;;;;;;5079787;28;19995;-63
2022/10/09 02:46:59;;;;;;;;;;;7.70;99.90;;;;;;5079829;28;19912;-63
2022/10/09 02:49:25;;;;;;;;;;;7.70;99.90;;;;;;5078986;28;20283;-62
2022/10/09 02:51:51;;;;;;;;;;;7.70;99.90;;;;;;5078863;28;19908;-63
2022/10/09 02:54:16;;;;;;;;;;;7.70;99.90;;;;;;5079319;28;20321;-63
2022/10/09 02:56:42;;;;;;;;;;;7.70;99.90;;;;;;5079711;28;19962;-64
2022/10/09 02:59:08;;;;;;;;;;;7.60;99.90;;;;;;5078829;28;19920;-63
2022/10/09 03:01:33;;;;;;;;;;;7.60;99.90;;;;;;5079629;28;20168;-63
2022/10/09 03:03:59;;;;;;;;;;;7.50;99.90;;;;;;5079389;28;20019;-64
2022/10/09 03:06:26;;;;;;;;;;;7.50;99.90;;;;;;5079430;28;19912;-63
2022/10/09 03:08:52;;;;;;;;;;;7.40;99.90;;;;;;5079308;28;19908;-63
2022/10/09 03:11:19;;;;;;;;;;;7.40;99.90;;;;;;5079232;28;19970;-64
2022/10/09 03:13:45;;;;;;;;;;;7.30;99.90;;;;;;5078514;28;19962;-65
2022/10/09 03:16:18;;;;;;;;;;;7.30;99.90;;;;;;5079594;28;19991;-63
2022/10/09 03:18:44;;;;;;;;;;;7.30;99.90;;;;;;5079469;28;20188;-64
2022/10/09 03:21:11;;;;;;;;;;;7.40;99.90;;;;;;5079157;28;20204;-64
2022/10/09 03:23:37;;;;;;;;;;;7.20;99.90;;;;;;5078995;28;19916;-63
2022/10/09 03:26:05;;;;;;;;;;;7.20;99.90;;;;;;5079027;28;20234;-63
2022/10/09 03:28:30;;;;;;;;;;;7.20;99.90;;;;;;5079057;28;19916;-64
2022/10/09 03:30:56;;;;;;;;;;;7.20;99.90;;;;;;5078883;28;19916;-63
2022/10/09 03:33:22;;;;;;;;;;;7.20;99.90;;;;;;5078162;28;19908;-64
2022/10/09 03:35:48;;;;;;;;;;;7.20;99.90;;;;;;5078837;28;19912;-64
2022/10/09 03:38:14;;;;;;;;;;;7.20;99.90;;;;;;5078094;28;19915;-64
2022/10/09 03:40:40;;;;;;;;;;;7.00;99.90;;;;;;5077936;28;19908;-63
2022/10/09 03:43:05;;;;;;;;;;;7.10;99.90;;;;;;5078682;28;19942;-64
2022/10/09 03:45:31;;;;;;;;;;;7.10;99.90;;;;;;5078048;28;19908;-64
2022/10/09 03:47:57;;;;;;;;;;;7.10;99.90;;;;;;5078596;28;19912;-64
2022/10/09 03:50:23;;;;;;;;;;;7.00;99.90;;;;;;5078564;28;20246;-64
2022/10/09 03:52:48;;;;;;;;;;;7.00;99.90;;;;;;5079418;28;19908;-64
2022/10/09 03:55:14;;;;;;;;;;;7.00;99.90;;;;;;5078488;28;19909;-64
2022/10/09 03:57:41;;;;;;;;;;;6.90;99.90;;;;;;5078781;28;19912;-64
2022/10/09 04:00:07;;;;;;;;;;;6.90;99.90;;;;;;5077551;28;19916;-64
2022/10/09 04:02:33;;;;;;;;;;;6.80;99.90;;;;;;5059957;28;19960;-65
2022/10/09 04:04:58;;;;;;;;;;;6.90;99.90;;;;;;5078332;28;19919;-64
2022/10/09 04:07:24;;;;;;;;;;;6.90;99.90;;;;;;5078231;28;19912;-64
2022/10/09 04:09:50;;;;;;;;;;;6.90;99.90;;;;;;5078187;28;19913;-64
2022/10/09 04:12:15;;;;;;;;;;;6.80;99.90;;;;;;5077320;28;19934;-64
2022/10/09 04:14:41;;;;;;;;;;;6.80;99.90;;;;;;5078394;28;19944;-64
2022/10/09 04:17:07;;;;;;;;;;;6.90;99.90;;;;;;5077412;28;20216;-64
2022/10/09 04:19:32;;;;;;;;;;;6.90;99.90;;;;;;5077990;28;19982;-64
2022/10/09 04:21:58;;;;;;;;;;;6.80;99.90;;;;;;5078244;28;19967;-65
2022/10/09 04:24:24;;;;;;;;;;;6.80;99.90;;;;;;5077938;28;19997;-65
2022/10/09 04:26:49;;;;;;;;;;;6.90;99.90;;;;;;5077893;28;19974;-64
2022/10/09 04:29:15;;;;;;;;;;;6.80;99.90;;;;;;5077813;28;19912;-64
2022/10/09 04:31:41;;;;;;;;;;;6.90;99.90;;;;;;5077809;28;20247;-64
2022/10/09 04:34:06;;;;;;;;;;;6.90;99.90;;;;;;5078213;28;19928;-64
2022/10/09 04:36:32;;;;;;;;;;;6.80;99.90;;;;;;5077831;28;19919;-64
2022/10/09 04:38:58;;;;;;;;;;;6.80;99.90;;;;;;5077687;28;19920;-65
2022/10/09 04:41:23;;;;;;;;;;;6.80;99.90;;;;;;5077702;28;19988;-64
2022/10/09 04:43:52;;;;;;;;;;;6.80;99.90;;;;;;5077507;28;19989;-64
2022/10/09 04:46:18;;;;;;;;;;;6.80;99.90;;;;;;5077576;28;19909;-64
2022/10/09 04:48:44;;;;;;;;;;;6.70;99.90;;;;;;5076906;28;19918;-64
2022/10/09 04:51:10;;;;;;;;;;;6.70;99.90;;;;;;5077831;28;20294;-65
2022/10/09 04:53:37;;;;;;;;;;;6.60;99.90;;;;;;5077735;28;19954;-65
2022/10/09 04:56:06;;;;;;;;;;;6.60;99.90;;;;;;5077766;28;19919;-64
2022/10/09 04:58:34;;;;;;;;;;;6.60;99.90;;;;;;5078400;28;19940;-64
2022/10/09 05:01:03;;;;;;;;;;;6.60;99.90;;;;;;5077479;28;19913;-64
2022/10/09 05:03:30;;;;;;;;;;;6.60;99.90;;;;;;5077298;28;19993;-65
2022/10/09 05:05:59;;;;;;;;;;;6.60;99.90;;;;;;5077362;28;19916;-64
2022/10/09 05:08:24;;;;;;;;;;;6.60;99.90;;;;;;5077305;28;19909;-64
2022/10/09 05:10:50;;;;;;;;;;;6.50;99.90;;;;;;5076221;28;20221;-64
2022/10/09 05:13:16;;;;;;;;;;;6.50;99.90;;;;;;5076114;28;19920;-64
2022/10/09 05:15:42;;;;;;;;;;;6.50;99.90;;;;;;5077238;28;19970;-64
2022/10/09 05:18:07;;;;;;;;;;;6.50;99.90;;;;;;5076992;28;20298;-64
2022/10/09 05:20:33;;;;;;;;;;;6.50;99.90;;;;;;5077073;28;19923;-64
2022/10/09 05:22:58;;;;;;;;;;;6.50;99.90;;;;;;5077106;28;19948;-65
2022/10/09 05:25:24;;;;;;;;;;;6.60;99.90;;;;;;5077108;28;19912;-64
2022/10/09 05:27:50;;;;;;;;;;;6.60;99.90;;;;;;5077113;28;19912;-64
2022/10/09 05:30:16;;;;;;;;;;;6.50;99.90;;;;;;5077054;28;20005;-64
2022/10/09 05:32:41;;;;;;;;;;;6.50;99.90;;;;;;5076299;28;19947;-64
2022/10/09 05:35:07;;;;;;;;;;;6.50;99.90;;;;;;5076978;28;19912;-65
2022/10/09 05:37:33;;;;;;;;;;;6.40;99.90;;;;;;5076354;28;20195;-64
2022/10/09 05:39:58;;;;;;;;;;;6.40;99.90;;;;;;5077225;28;19947;-64
2022/10/09 05:42:24;;;;;;;;;;;6.40;99.90;;;;;;5059572;28;19924;-64
2022/10/09 05:44:50;;;;;;;;;;;6.40;99.90;;;;;;5076955;28;20169;-64
2022/10/09 05:47:16;;;;;;;;;;;6.40;99.90;;;;;;5076086;28;19948;-66
2022/10/09 05:49:42;;;;;;;;;;;6.40;99.90;;;;;;5076745;28;19978;-64
2022/10/09 05:52:08;;;;;;;;;;;6.40;99.90;;;;;;5076729;28;19912;-64
2022/10/09 05:54:33;;;;;;;;;;;6.40;99.90;;;;;;5076418;28;19916;-64
2022/10/09 05:57:03;;;;;;;;;;;6.40;99.90;;;;;;5076020;28;19908;-64
2022/10/09 05:59:29;;;;;;;;;;;6.40;99.90;;;;;;5076477;28;20251;-63
2022/10/09 06:01:54;;;;;;;;;;;6.40;99.90;;;;;;5076819;28;19952;-63
2022/10/09 06:04:21;;;;;;;;;;;6.40;99.90;;;;;;5076687;28;19916;-64
2022/10/09 06:06:47;;;;;;;;;;;6.40;99.90;;;;;;5076784;28;20007;-64
2022/10/09 06:09:14;;;;;;;;;;;6.40;99.90;;;;;;5076987;28;19909;-65
2022/10/09 06:11:40;;;;;;;;;;;6.50;99.90;;;;;;5076420;28;19931;-65
2022/10/09 06:14:06;;;;;;;;;;;6.50;99.90;;;;;;5076555;28;19912;-64
2022/10/09 06:16:33;;;;;;;;;;;6.50;99.90;;;;;;5076350;28;19971;-65
2022/10/09 06:19:00;;;;;;;;;;;6.50;99.90;;;;;;5076538;28;19918;-65
2022/10/09 06:21:26;;;;;;;;;;;6.40;99.90;;;;;;5076607;28;19912;-63
2022/10/09 06:23:53;;;;;;;;;;;6.40;99.90;;;;;;5076498;28;19983;-64
2022/10/09 06:26:19;;;;;;;;;;;6.40;99.90;;;;;;5079587;28;20367;-65
2022/10/09 06:28:45;;;;;;;;;;;6.50;99.90;;;;;;5080095;28;19987;-64
2022/10/09 06:31:12;;;;;;;;;;;6.40;99.90;;;;;;5079228;28;19951;-63
2022/10/09 06:33:39;;;;;;;;;;;6.50;99.90;;;;;;5080058;28;20148;-64
2022/10/09 06:36:09;;;;;;;;;;;6.60;99.90;;;;;;5080003;28;19909;-64
2022/10/09 06:38:35;;;;;;;;;;;6.50;99.90;;;;;;5080242;28;20192;-66
2022/10/09 06:41:01;;;;;;;;;;;6.60;99.90;;;;;;5080547;28;19904;-64
2022/10/09 06:43:27;;;;;;;;;;;6.60;99.90;;;;;;5079769;28;19912;-64
2022/10/09 06:45:53;;;;;;;;;;;6.70;99.90;;;;;;5079892;28;19913;-65
2022/10/09 06:48:18;;;;;;;;;;;6.70;99.90;;;;;;5079717;28;19912;-63
2022/10/09 06:50:44;;;;;;;;;;;6.80;99.90;;;;;;5079709;28;19934;-65
2022/10/09 06:53:09;;;;;;;;;;;6.80;99.90;;;;;;5079006;28;19912;-64
2022/10/09 06:55:35;;;;;;;;;;;6.90;99.90;;;;;;5079646;28;19908;-65
2022/10/09 06:58:01;;;;;;;;;;;7.00;99.90;;;;;;5079640;28;20280;-64
2022/10/09 07:00:26;;;;;;;;;;;7.10;99.90;;;;;;5079534;28;19927;-64
2022/10/09 07:02:52;;;;;;;;;;;7.10;99.90;;;;;;5079368;28;19913;-65
2022/10/09 07:05:17;;;;;;;;;;;7.20;99.90;;;;;;5079370;28;19912;-65
2022/10/09 07:07:43;;;;;;;;;;;7.20;99.90;;;;;;5079414;28;19958;-64
2022/10/09 07:10:09;;;;;;;;;;;7.40;99.90;;;;;;5078505;28;19916;-66
2022/10/09 07:12:35;;;;;;;;;;;7.50;99.90;;;;;;5079091;28;19920;-63
2022/10/09 07:15:03;;;;;;;;;;;7.50;99.90;;;;;;5078546;28;20218;-65
2022/10/09 07:17:28;;;;;;;;;;;7.60;99.90;;;;;;5079215;28;19947;-63
2022/10/09 07:19:54;;;;;;;;;;;7.80;99.90;;;;;;5079187;28;19920;-63
2022/10/09 07:22:20;;;;;;;;;;;7.90;99.90;;;;;;5079016;28;20284;-66
2022/10/09 07:24:46;;;;;;;;;;;8.10;99.90;;;;;;5079083;28;20177;-64
2022/10/09 07:27:12;;;;;;;;;;;8.10;99.90;;;;;;5079599;28;19912;-65
2022/10/09 07:29:37;;;;;;;;;;;8.30;99.90;;;;;;5079020;28;19942;-65
2022/10/09 07:32:03;;;;;;;;;;;8.40;99.90;;;;;;5078941;28;20284;-65
2022/10/09 07:34:29;;;;;;;;;;;8.50;99.90;;;;;;5078290;28;20276;-66
2022/10/09 07:36:55;;;;;;;;;;;8.60;99.90;;;;;;5078436;28;19912;-66
2022/10/09 07:39:21;;;;;;;;;;;8.60;99.90;;;;;;5079237;28;20003;-65
2022/10/09 07:41:48;;;;;;;;;;;8.80;99.90;;;;;;5079361;28;19923;-65
2022/10/09 07:44:14;;;;;;;;;;;9.00;99.90;;;;;;5078074;28;20195;-64
2022/10/09 07:46:40;;;;;;;;;;;9.10;99.90;;;;;;5061281;28;19913;-65
2022/10/09 07:49:05;;;;;;;;;;;9.20;99.90;;;;;;5078635;28;19912;-64
2022/10/09 07:51:32;;;;;;;;;;;9.20;99.90;;;;;;5078652;28;20244;-64
2022/10/09 07:53:59;;;;;;;;;;;9.30;99.90;;;;;;5077756;28;19919;-65
2022/10/09 07:56:27;;;;;;;;;;;9.30;99.90;;;;;;5078536;28;20184;-64
2022/10/09 07:58:53;;;;;;;;;;;9.40;99.90;;;;;;5078413;28;19908;-64
2022/10/09 08:01:20;;;;;;;;;;;9.60;99.90;;;;;;5078397;28;19920;-65
2022/10/09 08:03:45;;;;;;;;;;;9.60;99.90;;;;;;5078339;28;19916;-64
2022/10/09 08:06:11;;;;;;;;;;;9.50;99.90;;;;;;5078461;28;19973;-64
2022/10/09 08:08:37;;;;;;;;;;;9.60;99.90;;;;;;5078196;28;19916;-66
2022/10/09 08:11:13;;;;;;;;;;;9.70;99.90;;;;;;5077968;28;20011;-64
2022/10/09 08:13:40;;;;;;;;;;;9.80;99.90;;;;;;5077488;28;20294;-65
2022/10/09 08:16:06;;;;;;;;;;;10.00;99.90;;;;;;5077996;28;19908;-64
2022/10/09 08:18:32;;;;;;;;;;;10.10;99.90;;;;;;5077892;28;19908;-63
2022/10/09 08:20:58;;;;;;;;;;;10.10;99.90;;;;;;5077150;28;19909;-65
2022/10/09 08:23:24;;;;;;;;;;;10.20;99.90;;;;;;5077877;28;19920;-65
2022/10/09 08:25:50;;;;;;;;;;;10.20;99.90;;;;;;5078006;28;19912;-64
2022/10/09 08:28:16;;;;;;;;;;;10.30;99.90;;;;;;5077186;28;19912;-64
2022/10/09 08:30:42;;;;;;;;;;;10.40;99.90;;;;;;5077715;28;19909;-65
2022/10/09 08:33:07;;;;;;;;;;;10.50;99.90;;;;;;5077539;28;19969;-64
2022/10/09 08:35:33;;;;;;;;;;;10.60;99.90;;;;;;5077669;28;19956;-64
2022/10/09 08:37:59;;;;;;;;;;;10.70;99.90;;;;;;5077571;28;19919;-64
2022/10/09 08:40:44;;;;;;;;;;;10.70;99.90;;;;;;5076953;28;20007;-64
2022/10/09 08:43:13;;;;;;;;;;;10.70;99.90;;;;;;5077029;28;19919;-63
2022/10/09 08:45:39;;;;;;;;;;;10.80;99.90;;;;;;5076786;28;20235;-64
2022/10/09 08:48:13;;;;;;;;;;;10.80;99.90;;;;;;5076885;28;20187;-63
2022/10/09 08:50:42;;;;;;;;;;;10.90;99.90;;;;;;5077411;28;19909;-65
2022/10/09 08:53:15;;;;;;;;;;;11.00;99.90;;;;;;5077331;28;19904;-65
2022/10/09 08:55:46;;;;;;;;;;;11.10;99.90;;;;;;5076699;28;19908;-65
2022/10/09 08:58:14;;;;;;;;;;;11.20;99.90;;;;;;5077585;28;19908;-65
2022/10/09 09:00:46;;;;;;;;;;;11.30;99.90;;;;;;5076702;28;19904;-63
2022/10/09 09:03:30;;;;;;;;;;;11.50;99.90;;;;;;5076565;28;20192;-63
2022/10/09 09:05:58;;;;;;;;;;;11.50;99.90;;;;;;5077341;28;19919;-64
2022/10/09 09:08:41;;;;;;;;;;;11.50;99.90;;;;;;5077338;28;20237;-65
2022/10/09 09:11:18;;;;;;;;;;;11.60;99.90;;;;;;5076272;28;19924;-64
2022/10/09 09:13:43;;;;;;;;;;;11.80;99.90;;;;;;5077207;28;19920;-63
2022/10/09 09:16:28;;;;;;;;;;;11.90;99.90;;;;;;5076436;28;20280;-64
2022/10/09 09:18:59;;;;;;;;;;;11.80;99.90;;;;;;5077190;28;19912;-64
2022/10/09 09:21:25;;;;;;;;;;;12.00;99.90;;;;;;5077160;28;20308;-64
2022/10/09 09:23:51;;;;;;;;;;;12.20;99.90;;;;;;5076983;28;19970;-64
2022/10/09 09:26:20;;;;;;;;;;;12.30;99.90;;;;;;5077016;28;19916;-64
2022/10/09 09:28:47;;;;;;;;;;;12.40;99.90;;;;;;5077008;28;19904;-65
2022/10/09 09:31:15;;;;;;;;;;;12.60;99.90;;;;;;5077527;28;19908;-65
2022/10/09 09:33:49;;;;;;;;;;;12.40;99.90;;;;;;5076879;28;19909;-65
2022/10/09 09:36:27;;;;;;;;;;;12.50;99.90;;;;;;5077014;28;19909;-66
2022/10/09 09:38:52;;;;;;;;;;;12.70;99.90;;;;;;5076245;28;19916;-65
2022/10/09 09:41:18;;;;;;;;;;;12.90;99.90;;;;;;5076985;28;20211;-64
2022/10/09 09:43:44;;;;;;;;;;;13.10;99.90;;;;;;5077033;28;19916;-64
2022/10/09 09:46:15;;;;;;;;;;;13.30;99.90;;;;;;5076872;28;19908;-64
2022/10/09 09:48:42;;;;;;;;;;;13.40;99.90;;;;;;5076168;28;19909;-62
2022/10/09 09:51:23;;;;;;;;;;;13.50;99.90;;;;;;5076848;28;19912;-62
2022/10/09 09:54:09;;;;;;;;;;;13.70;99.90;;;;;;5076939;28;19908;-62
2022/10/09 09:56:39;;;;;;;;;;;13.70;99.90;;;;;;5069553;28;20007;-61
2022/10/09 09:59:05;;;;;;;;;;;13.70;99.90;;;;;;5077202;28;19908;-62
2022/10/09 10:01:31;;;;;;;;;;;13.80;99.90;;;;;;5080618;28;19909;-62
2022/10/09 10:03:58;;;;;;;;;;;13.90;99.90;;;;;;5080512;28;19927;-63
2022/10/09 10:06:31;;;;;;;;;;;14.20;99.90;;;;;;5080541;28;19916;-64
2022/10/09 10:08:59;;;;;;;;;;;14.80;99.90;;;;;;5080500;28;19912;-64
2022/10/09 10:11:24;;;;;;;;;;;15.70;99.90;;;;;;5080690;28;19917;-61
2022/10/09 10:13:50;;;;;;;;;;;16.30;99.90;;;;;;5079584;28;19913;-62
2022/10/09 10:16:21;;;;;;;;;;;16.90;99.90;;;;;;5063372;28;20256;-63
2022/10/09 10:18:46;;;;;;;;;;;18.10;99.90;;;;;;5080316;28;19912;-64
2022/10/09 10:21:13;;;;;;;;;;;18.30;99.90;;;;;;5080338;28;20173;-65
2022/10/09 10:23:41;;;;;;;;;;;18.90;99.90;;;;;;5080179;28;19920;-66
2022/10/09 10:26:11;;;;;;;;;;;19.50;99.90;;;;;;5080235;28;19912;-66
2022/10/09 10:28:42;;;;;;;;;;;19.30;99.90;;;;;;5080120;28;19912;-66
2022/10/09 10:31:13;;;;;;;;;;;19.60;99.90;;;;;;5080173;28;19948;-65
2022/10/09 10:33:41;;;;;;;;;;;19.70;99.90;;;;;;5079997;28;19966;-64
2022/10/09 10:36:08;;;;;;;;;;;19.70;99.90;;;;;;5080125;28;19920;-64
2022/10/09 10:38:40;;;;;;;;;;;20.00;99.90;;;;;;5080370;28;19919;-65
2022/10/09 10:41:13;;;;;;;;;;;20.40;99.90;;;;;;5080000;28;19908;-64
2022/10/09 10:43:41;;;;;;;;;;;20.20;99.90;;;;;;5079267;28;20227;-65
2022/10/09 10:46:11;;;;;;;;;;;20.40;99.90;;;;;;5080450;28;19908;-65
2022/10/09 10:48:42;;;;;;;;;;;20.90;99.90;;;;;;5079884;28;19973;-65
2022/10/09 10:51:13;;;;;;;;;;;21.80;99.90;;;;;;5079802;28;19971;-64
2022/10/09 10:53:58;;;;;;;;;;;21.60;99.90;;;;;;5079839;28;19908;-64
2022/10/09 10:56:30;;;;;;;;;;;22.60;99.90;;;;;;5079239;28;19922;-63
2022/10/09 10:59:14;;;;;;;;;;;22.00;99.90;;;;;;5079906;28;19919;-63
2022/10/09 11:01:45;;;;;;;;;;;21.00;99.90;;;;;;5079830;28;20275;-66
2022/10/09 11:04:20;;;;;;;;;;;21.40;99.90;;;;;;5079448;28;20271;-63
2022/10/09 11:06:45;;;;;;;;;;;21.80;99.90;;;;;;5079587;28;19916;-65
2022/10/09 11:09:15;;;;;;;;;;;22.20;99.90;;;;;;5079440;28;20268;-64
2022/10/09 11:11:49;;;;;;;;;;;22.10;99.90;;;;;;5077956;28;19924;-64
2022/10/09 11:14:31;;;;;;;;;;;21.80;99.90;;;;;;5079590;28;19951;-64
2022/10/09 11:17:15;;;;;;;;;;;21.60;99.90;;;;;;5078557;28;20234;-64
2022/10/09 11:19:50;;;;;;;;;;;21.30;99.90;;;;;;5079317;28;20271;-64
2022/10/09 11:22:42;;;;;;;;;;;21.70;99.90;;;;;;5079069;28;19909;-64
2022/10/09 11:25:11;;;;;;;;;;;21.80;99.90;;;;;;5076823;28;19959;-63
2022/10/09 11:27:41;;;;;;;;;;;22.10;99.90;;;;;;5079334;28;19970;-64
2022/10/09 11:30:11;;;;;;;;;;;21.80;99.90;;;;;;5078084;28;20328;-64
2022/10/09 11:32:40;;;;;;;;;;;21.90;99.90;;;;;;5078795;28;19923;-65
2022/10/09 11:35:05;;;;;;;;;;;22.40;99.90;;;;;;5078097;28;20196;-64
2022/10/09 11:37:33;;;;;;;;;;;22.30;99.90;;;;;;5079017;28;19908;-64
2022/10/09 11:40:02;;;;;;;;;;;22.50;99.90;;;;;;5078012;28;20195;-64
2022/10/09 11:42:28;;;;;;;;;;;22.50;99.90;;;;;;5078645;28;19908;-64
2022/10/09 11:45:19;;;;;;;;;;;22.80;99.90;;;;;;5078900;28;19913;-64
2022/10/09 11:47:48;;;;;;;;;;;21.90;99.90;;;;;;5064231;28;19908;-63
2022/10/09 11:50:35;;;;;;;;;;;21.80;99.90;;;;;;5077846;28;19909;-63
2022/10/09 11:53:01;;;;;;;;;;;22.40;99.90;;;;;;5079074;28;19908;-64
2022/10/09 11:55:28;;;;;;;;;;;22.70;99.90;;;;;;5078417;28;19912;-63
2022/10/09 11:57:54;;;;;;;;;;;22.20;99.90;;;;;;5078382;28;20268;-63
2022/10/09 12:00:30;;;;;;;;;;;21.50;99.90;;;;;;5078505;28;20001;-64
2022/10/09 12:02:58;;;;;;;;;;;20.60;99.90;;;;;;5078221;28;20199;-64
2022/10/09 12:05:41;;;;;;;;;;;20.00;99.90;;;;;;5078448;28;20335;-64
2022/10/09 12:08:06;;;;;;;;;;;20.10;99.90;;;;;;5078554;28;19912;-64
2022/10/09 12:10:32;;;;;;;;;;;19.90;99.90;;;;;;5078094;28;20214;-64
2022/10/09 12:12:59;;;;;;;;;;;20.00;99.90;;;;;;5078142;28;20291;-63
2022/10/09 12:15:27;;;;;;;;;;;19.80;99.90;;;;;;5078050;28;19908;-63
2022/10/09 12:17:53;;;;;;;;;;;19.50;99.90;;;;;;5078112;28;19908;-61
2022/10/09 12:20:21;;;;;;;;;;;19.60;99.90;;;;;;5077968;28;19909;-62
2022/10/09 12:22:50;;;;;;;;;;;19.90;99.90;;;;;;5076999;28;19916;-62
2022/10/09 12:25:24;;;;;;;;;;;20.20;99.90;;;;;;5078520;28;20207;-62
2022/10/09 12:27:52;;;;;;;;;;;20.00;99.90;;;;;;5077889;28;20287;-62
2022/10/09 12:30:20;;;;;;;;;;;19.80;99.90;;;;;;5077759;28;19918;-62
2022/10/09 12:32:51;;;;;;;;;;;19.00;99.90;;;;;;5077981;28;19908;-62
2022/10/09 12:35:36;;;;;;;;;;;18.80;99.90;;;;;;5077670;28;19951;-62
2022/10/09 12:38:14;;;;;;;;;;;18.80;99.90;;;;;;5077696;28;19958;-62
2022/10/09 12:40:44;;;;;;;;;;;19.20;99.90;;;;;;5077737;28;19919;-61
2022/10/09 12:43:10;;;;;;;;;;;19.40;99.90;;;;;;5077550;28;19922;-61
2022/10/09 12:45:40;;;;;;;;;;;19.60;99.90;;;;;;5076973;28;20288;-62
2022/10/09 12:48:11;;;;;;;;;;;19.30;99.90;;;;;;5077528;28;19908;-62
2022/10/09 12:50:37;;;;;;;;;;;19.50;99.90;;;;;;5077478;28;19965;-61
2022/10/09 12:53:04;;;;;;;;;;;19.70;99.90;;;;;;5077907;28;19908;-62
2022/10/09 12:55:31;;;;;;;;;;;19.90;99.90;;;;;;5076732;28;19908;-59
2022/10/09 12:58:02;;;;;;;;;;;19.80;99.90;;;;;;5077310;28;19919;-61
2022/10/09 13:00:29;;;;;;;;;;;19.50;99.90;;;;;;5077319;28;19919;-63
2022/10/09 13:02:54;;;;;;;;;;;19.50;99.90;;;;;;5077278;28;19912;-62
2022/10/09 13:05:20;;;;;;;;;;;19.30;99.90;;;;;;5077232;28;19923;-63
2022/10/09 13:07:52;;;;;;;;;;;19.30;99.90;;;;;;5077205;28;19913;-62
2022/10/09 13:10:22;;;;;;;;;;;19.50;99.90;;;;;;5077306;28;20009;-62
2022/10/09 13:12:51;;;;;;;;;;;19.60;99.90;;;;;;5077352;28;19931;-62
2022/10/09 13:15:23;;;;;;;;;;;19.80;99.90;;;;;;5077481;28;19912;-62
2022/10/09 13:17:49;;;;;;;;;;;19.90;99.90;;;;;;5077345;28;20263;-62
2022/10/09 13:20:14;;;;;;;;;;;20.20;99.90;;;;;;5076497;28;19959;-62
2022/10/09 13:22:51;;;;;;;;;;;19.90;99.90;;;;;;5077163;28;19928;-61
2022/10/09 13:25:16;;;;;;;;;;;19.80;99.90;;;;;;5077289;28;19909;-62
2022/10/09 13:27:42;;;;;;;;;;;20.10;99.90;;;;;;5077082;28;19970;-62
2022/10/09 13:30:09;;;;;;;;;;;20.40;99.90;;;;;;5077008;28;20284;-62
2022/10/09 13:32:35;;;;;;;;;;;20.50;99.90;;;;;;5076474;28;19966;-62
2022/10/09 13:35:00;;;;;;;;;;;20.70;99.90;;;;;;5079259;28;19916;-62
2022/10/09 13:37:26;;;;;;;;;;;20.40;99.90;;;;;;5081262;28;19998;-63
2022/10/09 13:39:52;;;;;;;;;;;20.50;99.90;;;;;;5081197;28;20023;-63
2022/10/09 13:42:19;;;;;;;;;;;20.30;99.90;;;;;;5081178;28;19999;-63
2022/10/09 13:44:45;;;;;;;;;;;20.30;99.90;;;;;;5080940;28;20199;-63
2022/10/09 13:47:10;;;;;;;;;;;20.90;99.90;;;;;;5080372;28;19912;-63
2022/10/09 13:49:36;;;;;;;;;;;21.40;99.90;;;;;;5080545;28;20002;-62
2022/10/09 13:52:02;;;;;;;;;;;21.50;99.90;;;;;;5080966;28;19912;-62
2022/10/09 13:54:28;;;;;;;;;;;21.40;99.90;;;;;;5080359;28;19915;-61
2022/10/09 13:56:53;;;;;;;;;;;21.10;99.90;;;;;;5063341;28;19912;-63
2022/10/09 13:59:19;;;;;;;;;;;21.20;99.90;;;;;;5079981;28;19916;-63
2022/10/09 14:01:45;;;;;;;;;;;21.70;99.90;;;;;;5080764;28;19916;-62
2022/10/09 14:04:10;;;;;;;;;;;22.60;99.90;;;;;;5080524;28;20290;-62
2022/10/09 14:06:36;;;;;;;;;;;23.60;99.90;;;;;;5081107;28;19908;-62
2022/10/09 14:09:05;;;;;;;;;;;24.70;99.90;;;;;;5079625;28;19948;-63
2022/10/09 14:11:31;;;;;;;;;;;25.80;99.90;;;;;;5079534;28;20280;-62
2022/10/09 14:13:58;;;;;;;;;;;26.80;99.90;;;;;;5079621;28;19947;-63
2022/10/09 14:16:27;;;;;;;;;;;27.70;99.90;;;;;;5080773;28;20280;-63
2022/10/09 14:18:54;;;;;;;;;;;27.20;98.80;;;;;;5080314;28;19935;-62
2022/10/09 14:21:19;;;;;;;;;;;27.60;96.70;;;;;;5080862;28;19916;-64
2022/10/09 14:23:45;;;;;;;;;;;28.80;93.30;;;;;;5080267;28;19921;-63
2022/10/09 14:26:11;;;;;;;;;;;28.10;91.90;;;;;;5080260;28;19922;-63
2022/10/09 14:28:36;;;;;;;;;;;27.90;91.90;;;;;;5079802;28;20311;-64